createdAt,value
2023-03-29T00:02:02.490Z,4.80
2023-03-29T00:04:29.235Z,4.90
2023-03-29T00:06:56.286Z,4.90
2023-03-29T00:09:23.335Z,4.80
2023-03-29T00:11:49.978Z,4.90
2023-03-29T00:14:16.697Z,4.90
2023-03-29T00:16:44.969Z,4.90
2023-03-29T00:19:11.800Z,4.90
2023-03-29T00:21:38.580Z,4.90
2023-03-29T00:24:05.483Z,5.10
2023-03-29T00:26:32.078Z,5.10
2023-03-29T00:28:58.784Z,5.00
2023-03-29T00:31:26.116Z,5.00
2023-03-29T00:33:53.097Z,4.90
2023-03-29T00:36:19.791Z,4.90
2023-03-29T00:38:46.706Z,4.80
2023-03-29T00:41:13.852Z,4.80
2023-03-29T00:43:56.251Z,4.90
2023-03-29T00:46:24.110Z,4.90
2023-03-29T00:48:53.833Z,4.80
2023-03-29T00:51:22.591Z,4.80
2023-03-29T00:53:53.082Z,4.90
2023-03-29T00:56:35.170Z,4.90
2023-03-29T00:59:09.900Z,4.80
2023-03-29T01:01:42.727Z,4.80
2023-03-29T01:04:23.987Z,4.80
2023-03-29T01:06:59.228Z,4.70
2023-03-29T01:09:29.829Z,4.60
2023-03-29T01:12:00.948Z,4.50
2023-03-29T01:14:38.768Z,4.50
2023-03-29T01:17:06.492Z,4.60
2023-03-29T01:19:47.430Z,4.50
2023-03-29T01:22:51.375Z,4.30
2023-03-29T01:25:21.055Z,4.10
2023-03-29T01:27:49.903Z,4.10
2023-03-29T01:30:23.600Z,4.10
2023-03-29T01:33:07.489Z,4.10
2023-03-29T01:35:40.196Z,3.90
2023-03-29T01:38:15.402Z,3.70
2023-03-29T01:40:42.233Z,3.60
2023-03-29T01:43:24.060Z,3.50
2023-03-29T01:46:26.454Z,3.40
2023-03-29T01:49:13.420Z,3.40
2023-03-29T01:52:08.779Z,3.40
2023-03-29T01:54:40.555Z,3.20
2023-03-29T01:57:10.431Z,3.20
2023-03-29T01:59:41.520Z,3.20
2023-03-29T02:02:14.754Z,3.10
2023-03-29T02:04:48.927Z,3.10
2023-03-29T02:07:18.702Z,3.10
2023-03-29T02:09:47.085Z,3.00
2023-03-29T02:12:16.847Z,2.90
2023-03-29T02:14:43.996Z,2.80
2023-03-29T02:17:25.570Z,2.70
2023-03-29T02:20:01.795Z,2.70
2023-03-29T02:22:42.135Z,2.60
2023-03-29T02:25:09.465Z,2.60
2023-03-29T02:27:37.855Z,2.60
2023-03-29T02:30:07.169Z,2.70
2023-03-29T02:32:42.907Z,2.60
2023-03-29T02:35:18.082Z,2.50
2023-03-29T02:37:47.643Z,2.40
2023-03-29T02:40:15.558Z,2.30
2023-03-29T02:42:45.701Z,2.30
2023-03-29T02:45:16.237Z,2.40
2023-03-29T02:47:46.534Z,2.40
2023-03-29T02:50:13.491Z,2.30
2023-03-29T02:52:44.745Z,2.20
2023-03-29T02:55:15.963Z,2.20
2023-03-29T02:57:43.810Z,2.10
2023-03-29T03:00:12.001Z,2.10
2023-03-29T03:02:38.757Z,2.00
2023-03-29T03:05:06.351Z,2.10
2023-03-29T03:07:33.726Z,2.10
2023-03-29T03:10:00.788Z,2.00
2023-03-29T03:12:27.486Z,1.90
2023-03-29T03:14:54.661Z,2.00
2023-03-29T03:17:23.050Z,2.00
2023-03-29T03:19:49.873Z,1.90
2023-03-29T03:22:16.486Z,1.90
2023-03-29T03:24:43.111Z,1.90
2023-03-29T03:27:09.744Z,1.90
2023-03-29T03:29:38.462Z,1.90
2023-03-29T03:32:05.514Z,1.80
2023-03-29T03:34:32.289Z,1.70
2023-03-29T03:37:01.591Z,1.80
2023-03-29T03:39:28.202Z,1.80
2023-03-29T03:41:54.827Z,1.70
2023-03-29T03:44:21.500Z,1.70
2023-03-29T03:46:48.120Z,1.70
2023-03-29T03:49:14.748Z,1.70
2023-03-29T03:51:44.300Z,1.70
2023-03-29T03:54:11.158Z,1.60
2023-03-29T03:56:37.835Z,1.70
2023-03-29T03:59:05.514Z,1.60
2023-03-29T04:01:33.418Z,1.70
2023-03-29T04:04:00.100Z,1.70
2023-03-29T04:06:30.490Z,1.70
2023-03-29T04:08:57.827Z,1.70
2023-03-29T04:11:24.516Z,1.70
2023-03-29T04:13:51.135Z,1.80
2023-03-29T04:16:17.796Z,1.70
2023-03-29T04:18:44.527Z,1.70
2023-03-29T04:21:11.260Z,1.60
2023-03-29T04:23:38.009Z,1.60
2023-03-29T04:26:04.926Z,1.60
2023-03-29T04:28:31.505Z,1.60
2023-03-29T04:30:58.176Z,1.60
2023-03-29T04:33:24.804Z,1.50
2023-03-29T04:35:51.979Z,1.50
2023-03-29T04:38:23.120Z,1.40
2023-03-29T04:40:50.648Z,1.40
2023-03-29T04:43:17.254Z,1.40
2023-03-29T04:45:43.909Z,1.40
2023-03-29T04:48:10.675Z,1.40
2023-03-29T04:50:37.453Z,1.40
2023-03-29T04:53:04.088Z,1.30
2023-03-29T04:55:30.792Z,1.40
2023-03-29T04:57:57.508Z,1.40
2023-03-29T05:00:27.316Z,1.40
2023-03-29T05:02:54.214Z,1.50
2023-03-29T05:05:21.099Z,1.40
2023-03-29T05:07:47.911Z,1.30
2023-03-29T05:10:14.912Z,1.40
2023-03-29T05:12:41.683Z,1.40
2023-03-29T05:15:09.695Z,1.60
2023-03-29T05:17:36.340Z,1.60
2023-03-29T05:20:09.610Z,1.70
2023-03-29T05:22:36.540Z,1.80
2023-03-29T05:25:03.469Z,1.90
2023-03-29T05:27:30.731Z,2.00
2023-03-29T05:29:57.324Z,2.10
2023-03-29T05:32:24.006Z,2.20
2023-03-29T05:34:50.653Z,2.20
2023-03-29T05:37:17.821Z,2.20
2023-03-29T05:39:45.164Z,2.30
2023-03-29T05:42:15.765Z,2.40
2023-03-29T05:44:42.542Z,2.40
2023-03-29T05:47:09.186Z,2.50
2023-03-29T05:49:37.894Z,2.60
2023-03-29T05:52:04.538Z,2.70
2023-03-29T05:54:31.171Z,2.80
2023-03-29T05:56:57.843Z,2.70
2023-03-29T05:59:24.639Z,2.90
2023-03-29T06:01:51.939Z,2.90
2023-03-29T06:04:18.916Z,3.00
2023-03-29T06:06:46.277Z,3.10
2023-03-29T06:09:12.886Z,3.20
2023-03-29T06:11:39.585Z,3.20
2023-03-29T06:14:06.278Z,3.20
2023-03-29T06:16:32.963Z,3.30
2023-03-29T06:18:59.783Z,3.40
2023-03-29T06:21:27.235Z,3.40
2023-03-29T06:23:54.040Z,3.40
2023-03-29T06:26:20.882Z,3.40
2023-03-29T06:28:51.383Z,3.50
2023-03-29T06:31:19.951Z,3.50
2023-03-29T06:33:47.697Z,3.60
2023-03-29T06:36:16.218Z,3.70
2023-03-29T06:38:45.395Z,3.70
2023-03-29T06:41:12.126Z,3.90
2023-03-29T06:43:38.872Z,3.90
2023-03-29T06:46:11.622Z,4.00
2023-03-29T06:48:39.116Z,4.00
2023-03-29T06:51:07.600Z,4.10
2023-03-29T06:53:34.970Z,4.20
2023-03-29T06:56:05.367Z,4.30
2023-03-29T06:58:32.067Z,4.30
2023-03-29T07:01:02.390Z,4.40
2023-03-29T07:03:29.279Z,4.40
2023-03-29T07:06:09.653Z,4.50
2023-03-29T07:08:43.386Z,4.80
2023-03-29T07:11:13.201Z,4.80
2023-03-29T07:13:42.428Z,5.00
2023-03-29T07:16:12.754Z,5.10
2023-03-29T07:18:41.497Z,5.10
2023-03-29T07:21:08.728Z,5.10
2023-03-29T07:23:36.017Z,5.20
2023-03-29T07:26:02.785Z,5.30
2023-03-29T07:28:29.822Z,5.20
2023-03-29T07:31:06.701Z,5.10
2023-03-29T07:33:34.473Z,5.00
2023-03-29T07:36:01.953Z,5.00
2023-03-29T07:38:28.884Z,5.30
2023-03-29T07:40:56.137Z,5.50
2023-03-29T07:43:24.047Z,5.70
2023-03-29T07:45:52.647Z,5.80
2023-03-29T07:48:19.661Z,5.90
2023-03-29T07:50:46.715Z,6.20
2023-03-29T07:53:13.576Z,6.60
2023-03-29T07:55:47.358Z,6.80
2023-03-29T07:58:14.645Z,7.10
2023-03-29T08:00:43.451Z,7.20
2023-03-29T08:03:13.532Z,7.40
2023-03-29T08:05:41.960Z,7.50
2023-03-29T08:08:09.880Z,7.90
2023-03-29T08:10:39.323Z,8.20
2023-03-29T08:13:08.416Z,8.40
2023-03-29T08:15:39.891Z,9.30
2023-03-29T08:18:07.886Z,9.40
2023-03-29T08:20:34.919Z,9.50
2023-03-29T08:23:01.760Z,10.10
2023-03-29T08:25:28.400Z,10.60
2023-03-29T08:27:55.045Z,10.70
2023-03-29T08:30:22.083Z,11.10
2023-03-29T08:32:52.190Z,11.20
2023-03-29T08:35:21.178Z,11.20
2023-03-29T08:37:47.842Z,11.30
2023-03-29T08:40:23.842Z,11.20
2023-03-29T08:43:11.862Z,11.00
2023-03-29T08:45:44.234Z,10.30
2023-03-29T08:48:31.879Z,10.40
2023-03-29T08:51:05.176Z,10.70
2023-03-29T08:53:44.134Z,11.00
2023-03-29T08:56:18.434Z,11.30
2023-03-29T08:58:47.069Z,11.00
2023-03-29T09:01:13.798Z,10.90
2023-03-29T09:04:00.449Z,10.70
2023-03-29T09:06:27.450Z,10.90
2023-03-29T09:08:54.588Z,10.80
2023-03-29T09:11:24.239Z,10.90
2023-03-29T09:14:08.644Z,10.90
2023-03-29T09:16:49.637Z,11.30
2023-03-29T09:19:31.695Z,11.40
2023-03-29T09:22:24.266Z,12.20
2023-03-29T09:25:25.250Z,13.40
2023-03-29T09:28:04.961Z,12.70
2023-03-29T09:30:41.565Z,12.30
2023-03-29T09:33:24.573Z,11.60
2023-03-29T09:35:57.479Z,11.80
2023-03-29T09:38:24.205Z,12.50
2023-03-29T09:40:58.563Z,11.90
2023-03-29T09:43:41.022Z,12.60
2023-03-29T09:46:23.422Z,13.10
2023-03-29T09:48:51.551Z,12.60
2023-03-29T09:51:21.614Z,12.50
2023-03-29T09:53:48.972Z,12.10
2023-03-29T09:56:15.928Z,12.50
2023-03-29T09:58:44.108Z,13.30
2023-03-29T10:01:15.721Z,14.00
2023-03-29T10:03:47.380Z,14.30
2023-03-29T10:06:14.616Z,14.20
2023-03-29T10:08:50.500Z,14.50
2023-03-29T10:11:20.254Z,14.10
2023-03-29T10:13:50.590Z,13.50
2023-03-29T10:16:23.902Z,13.70
2023-03-29T10:18:50.988Z,13.70
2023-03-29T10:21:20.843Z,13.30
2023-03-29T10:23:49.019Z,13.10
2023-03-29T10:26:32.725Z,12.80
2023-03-29T10:29:02.639Z,12.40
2023-03-29T10:31:33.637Z,12.30
2023-03-29T10:34:06.394Z,12.10
2023-03-29T10:36:33.380Z,12.20
2023-03-29T10:39:05.595Z,12.40
2023-03-29T10:41:35.307Z,12.50
2023-03-29T10:44:02.523Z,12.60
2023-03-29T10:46:32.463Z,13.00
2023-03-29T10:49:14.948Z,13.40
2023-03-29T10:51:48.068Z,13.20
2023-03-29T10:54:20.427Z,13.80
2023-03-29T10:57:02.319Z,13.10
2023-03-29T10:59:46.313Z,12.90
2023-03-29T11:02:16.953Z,13.20
2023-03-29T11:04:52.489Z,13.00
2023-03-29T11:07:39.905Z,13.40
2023-03-29T11:10:41.387Z,13.70
2023-03-29T11:13:21.148Z,14.00
2023-03-29T11:16:12.709Z,14.20
2023-03-29T11:19:04.461Z,13.40
2023-03-29T11:21:46.839Z,13.10
2023-03-29T11:24:47.441Z,13.80
2023-03-29T11:27:31.697Z,13.60
2023-03-29T11:30:13.186Z,13.50
2023-03-29T11:33:04.394Z,13.90
2023-03-29T11:35:39.890Z,13.50
2023-03-29T11:38:09.514Z,13.50
2023-03-29T11:40:50.126Z,14.00
2023-03-29T11:43:39.489Z,14.20
2023-03-29T11:46:25.750Z,14.10
2023-03-29T11:49:18.346Z,14.40
2023-03-29T11:51:54.327Z,15.00
2023-03-29T11:54:30.879Z,15.10
2023-03-29T11:57:10.132Z,15.20
2023-03-29T11:59:43.094Z,15.20
2023-03-29T12:02:33.562Z,15.30
2023-03-29T12:05:10.846Z,15.10
2023-03-29T12:07:43.956Z,15.20
2023-03-29T12:10:30.884Z,14.90
2023-03-29T12:13:07.304Z,15.20
2023-03-29T12:15:43.795Z,15.70
2023-03-29T12:18:20.015Z,15.80
2023-03-29T12:20:52.662Z,15.60
2023-03-29T12:23:19.482Z,14.80
2023-03-29T12:26:02.413Z,14.80
2023-03-29T12:28:48.968Z,14.50
2023-03-29T12:31:23.936Z,14.20
2023-03-29T12:34:16.676Z,14.70
2023-03-29T12:37:00.437Z,14.20
2023-03-29T12:39:29.351Z,13.90
2023-03-29T12:42:19.489Z,13.50
2023-03-29T12:45:16.474Z,13.60
2023-03-29T12:47:47.251Z,13.30
2023-03-29T12:50:44.266Z,12.90
2023-03-29T12:53:18.083Z,12.80
2023-03-29T12:55:44.703Z,13.00
2023-03-29T12:58:27.345Z,12.90
2023-03-29T13:01:05.941Z,13.00
2023-03-29T13:03:35.852Z,13.10
2023-03-29T13:06:05.980Z,13.00
2023-03-29T13:08:45.903Z,13.20
2023-03-29T13:11:29.247Z,13.00
2023-03-29T13:13:57.324Z,13.00
2023-03-29T13:16:33.657Z,13.40
2023-03-29T13:19:39.411Z,13.60
2023-03-29T13:22:31.181Z,13.70
2023-03-29T13:25:36.403Z,13.90
2023-03-29T13:28:18.120Z,14.20
2023-03-29T13:33:57.123Z,14.70
2023-03-29T13:36:49.723Z,15.00
2023-03-29T13:39:22.537Z,15.10
2023-03-29T13:41:53.196Z,14.80
2023-03-29T13:44:22.648Z,14.80
2023-03-29T13:47:00.816Z,14.80
2023-03-29T13:49:31.761Z,14.30
2023-03-29T13:52:21.305Z,14.30
2023-03-29T13:55:06.070Z,14.40
2023-03-29T13:57:42.431Z,14.60
2023-03-29T14:00:36.789Z,14.80
2023-03-29T14:03:09.491Z,14.60
2023-03-29T14:05:39.773Z,14.50
2023-03-29T14:08:25.010Z,14.70
2023-03-29T14:10:53.632Z,14.40
2023-03-29T14:13:23.145Z,14.50
2023-03-29T14:15:54.731Z,14.60
2023-03-29T14:18:25.402Z,14.90
2023-03-29T14:20:55.089Z,14.50
2023-03-29T14:23:25.256Z,15.00
2023-03-29T14:25:52.261Z,15.30
2023-03-29T14:28:28.075Z,15.10
2023-03-29T14:30:55.992Z,14.90
2023-03-29T14:33:34.468Z,15.30
2023-03-29T14:36:06.347Z,15.30
2023-03-29T14:38:37.205Z,15.70
2023-03-29T14:41:04.269Z,15.70
2023-03-29T14:43:32.132Z,15.70
2023-03-29T14:46:02.761Z,16.10
2023-03-29T14:48:33.041Z,16.00
2023-03-29T14:51:00.597Z,15.60
2023-03-29T14:53:30.549Z,15.80
2023-03-29T14:55:57.525Z,16.00
2023-03-29T14:58:35.533Z,15.70
2023-03-29T15:01:13.273Z,15.70
2023-03-29T15:03:45.919Z,15.70
2023-03-29T15:06:13.725Z,15.50
2023-03-29T15:08:50.783Z,15.60
2023-03-29T15:11:27.544Z,15.50
2023-03-29T15:14:06.257Z,15.60
2023-03-29T15:16:33.736Z,15.50
2023-03-29T15:19:01.831Z,15.60
2023-03-29T15:21:39.036Z,15.80
2023-03-29T15:24:06.135Z,15.60
2023-03-29T15:26:36.030Z,15.50
2023-03-29T15:29:10.114Z,15.50
2023-03-29T15:31:39.283Z,15.50
2023-03-29T15:34:12.795Z,15.60
2023-03-29T15:36:46.377Z,15.70
2023-03-29T15:39:15.257Z,15.80
2023-03-29T15:41:43.600Z,16.00
2023-03-29T15:44:11.056Z,16.10
2023-03-29T15:46:37.969Z,16.10
2023-03-29T15:49:05.046Z,16.60
2023-03-29T15:51:31.968Z,16.20
2023-03-29T15:53:58.587Z,16.20
2023-03-29T15:56:26.637Z,16.50
2023-03-29T15:58:53.278Z,16.30
2023-03-29T16:01:34.452Z,16.40
2023-03-29T16:04:22.204Z,16.50
2023-03-29T16:06:52.803Z,16.60
2023-03-29T16:09:21.450Z,16.60
2023-03-29T16:11:49.555Z,16.60
2023-03-29T16:14:24.190Z,16.70
2023-03-29T16:16:52.300Z,16.70
2023-03-29T16:19:19.429Z,16.70
2023-03-29T16:21:46.173Z,16.80
2023-03-29T16:24:22.360Z,16.80
2023-03-29T16:26:49.907Z,16.80
2023-03-29T16:29:18.063Z,16.80
2023-03-29T16:31:46.754Z,16.70
2023-03-29T16:34:14.066Z,16.60
2023-03-29T16:36:41.151Z,16.60
2023-03-29T16:39:07.846Z,16.60
2023-03-29T16:41:34.536Z,16.60
2023-03-29T16:44:01.167Z,16.50
2023-03-29T16:46:27.916Z,16.50
2023-03-29T16:48:54.585Z,16.50
2023-03-29T16:51:21.656Z,16.30
2023-03-29T16:53:49.078Z,16.20
2023-03-29T16:56:15.775Z,16.20
2023-03-29T16:58:42.516Z,16.20
2023-03-29T17:01:11.621Z,16.10
2023-03-29T17:03:39.000Z,16.20
2023-03-29T17:06:06.842Z,16.20
2023-03-29T17:08:34.365Z,16.10
2023-03-29T17:11:01.453Z,15.90
2023-03-29T17:13:28.225Z,15.90
2023-03-29T17:15:56.313Z,15.90
2023-03-29T17:18:25.245Z,16.00
2023-03-29T17:20:55.220Z,15.90
2023-03-29T17:23:21.974Z,15.90
2023-03-29T17:25:48.697Z,15.80
2023-03-29T17:28:15.433Z,15.80
2023-03-29T17:30:44.671Z,15.70
2023-03-29T17:33:13.488Z,15.70
2023-03-29T17:35:44.254Z,15.70
2023-03-29T17:38:11.690Z,15.70
2023-03-29T17:40:39.213Z,15.60
2023-03-29T17:43:06.023Z,15.30
2023-03-29T17:45:33.077Z,15.20
2023-03-29T17:47:59.733Z,15.20
2023-03-29T17:50:27.010Z,15.30
2023-03-29T17:52:53.599Z,15.20
2023-03-29T17:55:21.016Z,15.10
2023-03-29T17:57:48.971Z,15.20
2023-03-29T18:00:16.284Z,15.10
2023-03-29T18:02:43.290Z,15.00
2023-03-29T18:05:10.763Z,14.90
2023-03-29T18:07:37.536Z,14.80
2023-03-29T18:10:04.911Z,15.00
2023-03-29T18:12:31.689Z,15.00
2023-03-29T18:14:58.804Z,14.80
2023-03-29T18:17:27.346Z,14.80
2023-03-29T18:19:54.139Z,14.60
2023-03-29T18:22:20.973Z,14.50
2023-03-29T18:24:49.231Z,14.40
2023-03-29T18:27:16.031Z,14.90
2023-03-29T18:29:44.033Z,15.10
2023-03-29T18:32:11.443Z,14.80
2023-03-29T18:34:39.287Z,14.90
2023-03-29T18:37:06.317Z,14.90
2023-03-29T18:39:34.668Z,14.80
2023-03-29T18:42:01.718Z,14.90
2023-03-29T18:44:29.018Z,14.70
2023-03-29T18:46:56.311Z,14.90
2023-03-29T18:49:25.722Z,14.90
2023-03-29T18:51:52.501Z,14.90
2023-03-29T18:54:19.251Z,15.10
2023-03-29T18:56:45.955Z,15.00
2023-03-29T18:59:12.988Z,14.70
2023-03-29T19:01:39.743Z,14.70
2023-03-29T19:04:06.558Z,14.80
2023-03-29T19:06:33.275Z,14.90
2023-03-29T19:09:02.083Z,14.80
2023-03-29T19:11:29.604Z,14.70
2023-03-29T19:13:56.766Z,14.80
2023-03-29T19:16:23.701Z,14.90
2023-03-29T19:18:50.501Z,14.60
2023-03-29T19:21:17.120Z,14.40
2023-03-29T19:23:43.786Z,14.20
2023-03-29T19:26:11.511Z,14.40
2023-03-29T19:28:38.296Z,13.90
2023-03-29T19:31:05.266Z,14.20
2023-03-29T19:33:32.310Z,14.00
2023-03-29T19:35:59.144Z,14.10
2023-03-29T19:38:25.952Z,14.40
2023-03-29T19:40:52.863Z,14.50
2023-03-29T19:43:20.676Z,15.00
2023-03-29T19:45:49.258Z,15.10
2023-03-29T19:48:23.573Z,14.80
2023-03-29T19:50:51.488Z,15.00
2023-03-29T19:53:18.202Z,15.00
2023-03-29T19:55:45.390Z,14.80
2023-03-29T19:58:12.897Z,14.90
2023-03-29T20:00:39.961Z,14.80
2023-03-29T20:03:10.453Z,14.60
2023-03-29T20:05:38.671Z,14.40
2023-03-29T20:08:06.512Z,14.40
2023-03-29T20:10:33.777Z,14.10
2023-03-29T20:13:00.688Z,14.00
2023-03-29T20:15:27.542Z,14.10
2023-03-29T20:17:58.469Z,14.10
2023-03-29T20:20:26.745Z,14.10
2023-03-29T20:23:05.203Z,14.30
2023-03-29T20:25:34.939Z,14.90
2023-03-29T20:28:01.777Z,14.70
2023-03-29T20:30:28.563Z,14.50
2023-03-29T20:32:55.653Z,14.90
2023-03-29T20:35:22.356Z,15.00
2023-03-29T20:37:49.067Z,14.70
2023-03-29T20:40:15.979Z,15.10
2023-03-29T20:42:42.922Z,15.10
2023-03-29T20:45:18.201Z,15.00
2023-03-29T20:47:56.071Z,14.80
2023-03-29T20:50:28.782Z,15.10
2023-03-29T20:52:56.665Z,15.00
2023-03-29T20:55:24.482Z,14.90
2023-03-29T20:57:58.136Z,15.40
2023-03-29T21:00:27.202Z,15.10
2023-03-29T21:02:58.738Z,15.20
2023-03-29T21:05:28.343Z,15.40
2023-03-29T21:07:55.058Z,15.30
2023-03-29T21:10:23.631Z,15.20
2023-03-29T21:13:00.311Z,15.20
2023-03-29T21:15:30.543Z,15.00
2023-03-29T21:17:57.958Z,15.20
2023-03-29T21:20:25.091Z,15.20
2023-03-29T21:22:51.751Z,15.20
2023-03-29T21:25:19.113Z,15.20
2023-03-29T21:27:46.165Z,15.10
2023-03-29T21:30:13.247Z,15.10
2023-03-29T21:32:39.974Z,15.10
2023-03-29T21:35:07.323Z,15.00
2023-03-29T21:37:33.964Z,14.70
2023-03-29T21:40:00.881Z,14.70
2023-03-29T21:42:27.702Z,14.50
2023-03-29T21:44:54.370Z,14.50
2023-03-29T21:47:21.067Z,14.50
2023-03-29T21:49:47.741Z,14.50
2023-03-29T21:52:14.433Z,14.60
2023-03-29T21:54:41.159Z,14.60
2023-03-29T21:57:08.294Z,14.60
2023-03-29T21:59:35.205Z,14.80
2023-03-29T22:02:01.892Z,14.90
2023-03-29T22:04:36.587Z,14.90
2023-03-29T22:07:04.738Z,15.00
2023-03-29T22:09:34.576Z,15.20
2023-03-29T22:12:01.627Z,15.40
2023-03-29T22:14:31.098Z,15.10
2023-03-29T22:16:57.843Z,15.10
2023-03-29T22:19:24.530Z,15.10
2023-03-29T22:21:51.452Z,15.20
2023-03-29T22:24:18.456Z,15.00
2023-03-29T22:26:45.148Z,14.90
2023-03-29T22:29:11.959Z,14.80
2023-03-29T22:31:39.351Z,15.00
2023-03-29T22:34:06.589Z,14.70
2023-03-29T22:36:33.549Z,14.70
2023-03-29T22:39:00.577Z,14.50
2023-03-29T22:41:29.214Z,14.60
2023-03-29T22:43:57.764Z,14.50
2023-03-29T22:46:25.099Z,14.50
2023-03-29T22:48:52.339Z,14.40
2023-03-29T22:51:20.024Z,14.40
2023-03-29T22:53:47.093Z,14.30
2023-03-29T22:56:15.483Z,14.40
2023-03-29T22:58:42.697Z,14.30
2023-03-29T23:01:09.538Z,14.50
2023-03-29T23:03:36.749Z,14.70
2023-03-29T23:06:04.133Z,14.60
2023-03-29T23:08:32.419Z,14.30
2023-03-29T23:10:59.203Z,14.20
2023-03-29T23:13:28.721Z,13.90
2023-03-29T23:15:58.848Z,14.00
2023-03-29T23:18:27.636Z,13.90
2023-03-29T23:20:56.646Z,13.70
2023-03-29T23:23:24.714Z,13.80
2023-03-29T23:25:53.297Z,13.80
2023-03-29T23:28:23.477Z,14.00
2023-03-29T23:30:57.011Z,14.50
2023-03-29T23:33:25.626Z,14.80
2023-03-29T23:35:53.266Z,14.70
2023-03-29T23:38:20.807Z,14.80
2023-03-29T23:40:59.164Z,14.70
2023-03-29T23:43:27.236Z,14.70
2023-03-29T23:45:57.834Z,14.60
2023-03-29T23:48:25.290Z,14.50
2023-03-29T23:50:52.392Z,14.50
2023-03-29T23:53:20.799Z,14.50
2023-03-29T23:55:48.403Z,14.50
2023-03-29T23:58:16.468Z,14.50
